sensor_id;sensor_type;location;lat;lon;timestamp;P1;durP1;ratioP1;P2;durP2;ratioP2
21886;SDS011;11108;49.988;8.182;2023-07-28T00:00:30;1.50;;;1.40;;
21886;SDS011;11108;49.988;8.182;2023-07-28T00:02:55;1.23;;;1.13;;
21886;SDS011;11108;49.988;8.182;2023-07-28T00:05:20;1.70;;;1.60;;
21886;SDS011;11108;49.988;8.182;2023-07-28T00:07:45;1.50;;;1.40;;
21886;SDS011;11108;49.988;8.182;2023-07-28T00:10:10;1.30;;;1.30;;
21886;SDS011;11108;49.988;8.182;2023-07-28T00:12:36;0.97;;;0.97;;
21886;SDS011;11108;49.988;8.182;2023-07-28T00:15:01;1.08;;;1.08;;
21886;SDS011;11108;49.988;8.182;2023-07-28T00:17:26;1.20;;;1.20;;
21886;SDS011;11108;49.988;8.182;2023-07-28T00:19:51;1.10;;;1.10;;
21886;SDS011;11108;49.988;8.182;2023-07-28T00:22:16;0.93;;;0.93;;
21886;SDS011;11108;49.988;8.182;2023-07-28T00:24:42;1.30;;;1.20;;
21886;SDS011;11108;49.988;8.182;2023-07-28T00:27:07;1.20;;;1.20;;
21886;SDS011;11108;49.988;8.182;2023-07-28T00:29:32;1.10;;;1.10;;
21886;SDS011;11108;49.988;8.182;2023-07-28T00:31:57;1.20;;;1.20;;
21886;SDS011;11108;49.988;8.182;2023-07-28T00:34:22;0.90;;;0.90;;
21886;SDS011;11108;49.988;8.182;2023-07-28T00:36:48;1.23;;;1.20;;
21886;SDS011;11108;49.988;8.182;2023-07-28T00:39:13;1.10;;;1.00;;
21886;SDS011;11108;49.988;8.182;2023-07-28T00:41:38;0.90;;;0.90;;
21886;SDS011;11108;49.988;8.182;2023-07-28T00:44:04;1.23;;;1.23;;
21886;SDS011;11108;49.988;8.182;2023-07-28T00:46:29;1.30;;;1.30;;
21886;SDS011;11108;49.988;8.182;2023-07-28T00:48:54;1.13;;;1.10;;
21886;SDS011;11108;49.988;8.182;2023-07-28T00:51:20;1.20;;;1.20;;
21886;SDS011;11108;49.988;8.182;2023-07-28T00:53:45;1.20;;;1.20;;
21886;SDS011;11108;49.988;8.182;2023-07-28T00:56:11;0.90;;;0.90;;
21886;SDS011;11108;49.988;8.182;2023-07-28T00:58:36;1.67;;;1.20;;
21886;SDS011;11108;49.988;8.182;2023-07-28T01:01:01;1.20;;;1.20;;
21886;SDS011;11108;49.988;8.182;2023-07-28T01:03:26;1.00;;;1.00;;
21886;SDS011;11108;49.988;8.182;2023-07-28T01:06:05;0.97;;;0.97;;
21886;SDS011;11108;49.988;8.182;2023-07-28T01:10:57;1.00;;;1.00;;
21886;SDS011;11108;49.988;8.182;2023-07-28T01:13:22;1.30;;;1.20;;
21886;SDS011;11108;49.988;8.182;2023-07-28T01:15:47;1.30;;;1.30;;
21886;SDS011;11108;49.988;8.182;2023-07-28T01:18:13;1.13;;;1.13;;
21886;SDS011;11108;49.988;8.182;2023-07-28T01:20:38;1.20;;;1.20;;
21886;SDS011;11108;49.988;8.182;2023-07-28T01:23:08;1.10;;;1.10;;
21886;SDS011;11108;49.988;8.182;2023-07-28T01:25:42;1.47;;;1.40;;
21886;SDS011;11108;49.988;8.182;2023-07-28T01:28:08;0.90;;;0.90;;
21886;SDS011;11108;49.988;8.182;2023-07-28T01:30:34;1.00;;;1.00;;
21886;SDS011;11108;49.988;8.182;2023-07-28T01:32:59;1.00;;;1.00;;
21886;SDS011;11108;49.988;8.182;2023-07-28T01:35:25;1.10;;;1.10;;
21886;SDS011;11108;49.988;8.182;2023-07-28T01:37:50;1.20;;;1.20;;
21886;SDS011;11108;49.988;8.182;2023-07-28T01:40:19;1.00;;;1.00;;
21886;SDS011;11108;49.988;8.182;2023-07-28T01:42:44;1.10;;;1.10;;
21886;SDS011;11108;49.988;8.182;2023-07-28T01:45:09;1.30;;;1.30;;
21886;SDS011;11108;49.988;8.182;2023-07-28T01:47:35;0.90;;;0.90;;
21886;SDS011;11108;49.988;8.182;2023-07-28T01:50:00;1.00;;;1.00;;
21886;SDS011;11108;49.988;8.182;2023-07-28T01:52:25;0.90;;;0.90;;
21886;SDS011;11108;49.988;8.182;2023-07-28T01:54:50;1.10;;;1.10;;
21886;SDS011;11108;49.988;8.182;2023-07-28T01:57:17;1.20;;;1.20;;
21886;SDS011;11108;49.988;8.182;2023-07-28T01:59:42;1.00;;;1.00;;
21886;SDS011;11108;49.988;8.182;2023-07-28T02:02:07;1.03;;;1.03;;
21886;SDS011;11108;49.988;8.182;2023-07-28T02:04:32;0.90;;;0.90;;
21886;SDS011;11108;49.988;8.182;2023-07-28T02:06:57;1.20;;;1.20;;
21886;SDS011;11108;49.988;8.182;2023-07-28T02:09:23;1.00;;;1.00;;
21886;SDS011;11108;49.988;8.182;2023-07-28T02:11:48;1.30;;;1.30;;
21886;SDS011;11108;49.988;8.182;2023-07-28T02:14:13;1.33;;;1.23;;
21886;SDS011;11108;49.988;8.182;2023-07-28T02:16:38;1.20;;;1.10;;
21886;SDS011;11108;49.988;8.182;2023-07-28T02:19:03;1.13;;;1.13;;
21886;SDS011;11108;49.988;8.182;2023-07-28T02:21:29;1.17;;;1.17;;
21886;SDS011;11108;49.988;8.182;2023-07-28T02:23:54;1.10;;;1.10;;
21886;SDS011;11108;49.988;8.182;2023-07-28T02:26:19;1.20;;;1.20;;
21886;SDS011;11108;49.988;8.182;2023-07-28T02:28:45;0.93;;;0.93;;
21886;SDS011;11108;49.988;8.182;2023-07-28T02:31:10;1.23;;;0.80;;
21886;SDS011;11108;49.988;8.182;2023-07-28T02:33:35;1.00;;;1.00;;
21886;SDS011;11108;49.988;8.182;2023-07-28T02:36:01;2.03;;;1.00;;
21886;SDS011;11108;49.988;8.182;2023-07-28T02:38:27;1.00;;;1.00;;
21886;SDS011;11108;49.988;8.182;2023-07-28T02:40:52;1.03;;;1.03;;
21886;SDS011;11108;49.988;8.182;2023-07-28T02:43:18;1.00;;;1.00;;
21886;SDS011;11108;49.988;8.182;2023-07-28T02:45:43;1.20;;;1.20;;
21886;SDS011;11108;49.988;8.182;2023-07-28T02:48:08;1.10;;;0.90;;
21886;SDS011;11108;49.988;8.182;2023-07-28T02:50:33;1.30;;;0.90;;
21886;SDS011;11108;49.988;8.182;2023-07-28T02:52:59;1.00;;;1.00;;
21886;SDS011;11108;49.988;8.182;2023-07-28T02:55:24;1.00;;;1.00;;
21886;SDS011;11108;49.988;8.182;2023-07-28T02:57:49;0.77;;;0.77;;
21886;SDS011;11108;49.988;8.182;2023-07-28T03:00:14;1.13;;;1.13;;
21886;SDS011;11108;49.988;8.182;2023-07-28T03:02:39;1.10;;;1.10;;
21886;SDS011;11108;49.988;8.182;2023-07-28T03:05:05;0.90;;;0.90;;
21886;SDS011;11108;49.988;8.182;2023-07-28T03:07:30;1.07;;;1.07;;
21886;SDS011;11108;49.988;8.182;2023-07-28T03:09:56;1.30;;;1.20;;
21886;SDS011;11108;49.988;8.182;2023-07-28T03:12:21;1.53;;;1.43;;
21886;SDS011;11108;49.988;8.182;2023-07-28T03:14:46;0.80;;;0.80;;
21886;SDS011;11108;49.988;8.182;2023-07-28T03:17:11;1.20;;;1.10;;
21886;SDS011;11108;49.988;8.182;2023-07-28T03:19:37;1.10;;;1.00;;
21886;SDS011;11108;49.988;8.182;2023-07-28T03:22:02;1.00;;;1.00;;
21886;SDS011;11108;49.988;8.182;2023-07-28T03:24:27;1.20;;;1.10;;
21886;SDS011;11108;49.988;8.182;2023-07-28T03:26:52;1.00;;;1.00;;
21886;SDS011;11108;49.988;8.182;2023-07-28T03:29:17;0.90;;;0.90;;
21886;SDS011;11108;49.988;8.182;2023-07-28T03:31:43;1.13;;;1.10;;
21886;SDS011;11108;49.988;8.182;2023-07-28T03:34:08;1.20;;;1.20;;
21886;SDS011;11108;49.988;8.182;2023-07-28T03:36:33;0.87;;;0.87;;
21886;SDS011;11108;49.988;8.182;2023-07-28T03:38:59;1.20;;;1.10;;
21886;SDS011;11108;49.988;8.182;2023-07-28T03:41:24;1.27;;;0.90;;
21886;SDS011;11108;49.988;8.182;2023-07-28T03:43:49;1.23;;;1.10;;
21886;SDS011;11108;49.988;8.182;2023-07-28T03:46:14;2.53;;;1.13;;
21886;SDS011;11108;49.988;8.182;2023-07-28T03:48:40;2.37;;;1.00;;
21886;SDS011;11108;49.988;8.182;2023-07-28T03:51:05;0.87;;;0.87;;
21886;SDS011;11108;49.988;8.182;2023-07-28T03:53:30;1.00;;;1.00;;
21886;SDS011;11108;49.988;8.182;2023-07-28T03:55:55;0.90;;;0.90;;
21886;SDS011;11108;49.988;8.182;2023-07-28T03:58:23;1.90;;;1.20;;
21886;SDS011;11108;49.988;8.182;2023-07-28T04:00:49;1.10;;;1.10;;
21886;SDS011;11108;49.988;8.182;2023-07-28T04:03:14;1.40;;;0.93;;
21886;SDS011;11108;49.988;8.182;2023-07-28T04:05:39;0.70;;;0.70;;
21886;SDS011;11108;49.988;8.182;2023-07-28T04:08:04;0.83;;;0.83;;
21886;SDS011;11108;49.988;8.182;2023-07-28T04:10:30;1.30;;;1.30;;
21886;SDS011;11108;49.988;8.182;2023-07-28T04:12:55;0.83;;;0.83;;
21886;SDS011;11108;49.988;8.182;2023-07-28T04:15:20;2.20;;;1.00;;
21886;SDS011;11108;49.988;8.182;2023-07-28T04:17:45;1.00;;;1.00;;
21886;SDS011;11108;49.988;8.182;2023-07-28T04:20:11;0.97;;;0.97;;
21886;SDS011;11108;49.988;8.182;2023-07-28T04:22:36;0.90;;;0.90;;
21886;SDS011;11108;49.988;8.182;2023-07-28T04:25:01;0.93;;;0.93;;
21886;SDS011;11108;49.988;8.182;2023-07-28T04:27:26;0.80;;;0.80;;
21886;SDS011;11108;49.988;8.182;2023-07-28T04:29:52;0.97;;;0.90;;
21886;SDS011;11108;49.988;8.182;2023-07-28T04:32:17;0.90;;;0.90;;
21886;SDS011;11108;49.988;8.182;2023-07-28T04:34:42;1.00;;;1.00;;
21886;SDS011;11108;49.988;8.182;2023-07-28T04:37:07;0.83;;;0.83;;
21886;SDS011;11108;49.988;8.182;2023-07-28T04:39:32;0.77;;;0.77;;
21886;SDS011;11108;49.988;8.182;2023-07-28T04:41:58;0.97;;;0.80;;
21886;SDS011;11108;49.988;8.182;2023-07-28T04:44:23;0.90;;;0.90;;
21886;SDS011;11108;49.988;8.182;2023-07-28T04:46:48;0.80;;;0.80;;
21886;SDS011;11108;49.988;8.182;2023-07-28T04:49:13;0.70;;;0.70;;
21886;SDS011;11108;49.988;8.182;2023-07-28T04:51:39;0.70;;;0.70;;
21886;SDS011;11108;49.988;8.182;2023-07-28T04:54:04;0.90;;;0.90;;
21886;SDS011;11108;49.988;8.182;2023-07-28T04:56:29;1.00;;;1.00;;
21886;SDS011;11108;49.988;8.182;2023-07-28T04:58:54;0.77;;;0.77;;
21886;SDS011;11108;49.988;8.182;2023-07-28T05:01:19;0.90;;;0.90;;
21886;SDS011;11108;49.988;8.182;2023-07-28T05:03:45;0.70;;;0.70;;
21886;SDS011;11108;49.988;8.182;2023-07-28T05:06:10;0.70;;;0.70;;
21886;SDS011;11108;49.988;8.182;2023-07-28T05:08:35;0.90;;;0.90;;
21886;SDS011;11108;49.988;8.182;2023-07-28T05:11:01;0.80;;;0.80;;
21886;SDS011;11108;49.988;8.182;2023-07-28T05:13:26;0.77;;;0.77;;
21886;SDS011;11108;49.988;8.182;2023-07-28T05:15:51;0.87;;;0.87;;
21886;SDS011;11108;49.988;8.182;2023-07-28T05:18:17;0.80;;;0.80;;
21886;SDS011;11108;49.988;8.182;2023-07-28T05:20:42;0.80;;;0.80;;
21886;SDS011;11108;49.988;8.182;2023-07-28T05:23:07;0.70;;;0.70;;
21886;SDS011;11108;49.988;8.182;2023-07-28T05:25:32;1.03;;;0.90;;
21886;SDS011;11108;49.988;8.182;2023-07-28T05:27:57;0.63;;;0.63;;
21886;SDS011;11108;49.988;8.182;2023-07-28T05:30:23;0.60;;;0.60;;
21886;SDS011;11108;49.988;8.182;2023-07-28T05:32:48;0.70;;;0.70;;
21886;SDS011;11108;49.988;8.182;2023-07-28T05:35:14;0.67;;;0.67;;
21886;SDS011;11108;49.988;8.182;2023-07-28T05:37:39;0.77;;;0.77;;
21886;SDS011;11108;49.988;8.182;2023-07-28T05:40:05;0.70;;;0.70;;
21886;SDS011;11108;49.988;8.182;2023-07-28T05:42:30;0.80;;;0.80;;
21886;SDS011;11108;49.988;8.182;2023-07-28T05:44:55;0.90;;;0.90;;
21886;SDS011;11108;49.988;8.182;2023-07-28T05:47:20;0.70;;;0.70;;
21886;SDS011;11108;49.988;8.182;2023-07-28T05:49:46;0.70;;;0.70;;
21886;SDS011;11108;49.988;8.182;2023-07-28T05:52:11;1.27;;;0.70;;
21886;SDS011;11108;49.988;8.182;2023-07-28T05:54:36;0.80;;;0.80;;
21886;SDS011;11108;49.988;8.182;2023-07-28T05:57:01;0.60;;;0.60;;
21886;SDS011;11108;49.988;8.182;2023-07-28T05:59:27;1.13;;;0.80;;
21886;SDS011;11108;49.988;8.182;2023-07-28T06:01:52;0.87;;;0.77;;
21886;SDS011;11108;49.988;8.182;2023-07-28T06:04:17;0.77;;;0.77;;
21886;SDS011;11108;49.988;8.182;2023-07-28T06:06:43;0.70;;;0.70;;
21886;SDS011;11108;49.988;8.182;2023-07-28T06:09:08;0.57;;;0.57;;
21886;SDS011;11108;49.988;8.182;2023-07-28T06:11:33;0.60;;;0.60;;
21886;SDS011;11108;49.988;8.182;2023-07-28T06:13:58;0.70;;;0.70;;
21886;SDS011;11108;49.988;8.182;2023-07-28T06:16:23;0.60;;;0.60;;
21886;SDS011;11108;49.988;8.182;2023-07-28T06:18:49;0.60;;;0.60;;
21886;SDS011;11108;49.988;8.182;2023-07-28T06:21:14;0.73;;;0.73;;
21886;SDS011;11108;49.988;8.182;2023-07-28T06:23:39;1.23;;;0.60;;
21886;SDS011;11108;49.988;8.182;2023-07-28T06:26:05;1.43;;;0.80;;
21886;SDS011;11108;49.988;8.182;2023-07-28T06:28:30;0.70;;;0.70;;
21886;SDS011;11108;49.988;8.182;2023-07-28T06:30:55;0.50;;;0.50;;
21886;SDS011;11108;49.988;8.182;2023-07-28T06:33:21;0.63;;;0.63;;
21886;SDS011;11108;49.988;8.182;2023-07-28T06:35:46;0.60;;;0.60;;
21886;SDS011;11108;49.988;8.182;2023-07-28T06:38:12;0.70;;;0.70;;
21886;SDS011;11108;49.988;8.182;2023-07-28T06:40:37;0.60;;;0.60;;
21886;SDS011;11108;49.988;8.182;2023-07-28T06:43:02;0.73;;;0.73;;
21886;SDS011;11108;49.988;8.182;2023-07-28T06:45:27;0.70;;;0.70;;
21886;SDS011;11108;49.988;8.182;2023-07-28T06:47:52;0.70;;;0.70;;
21886;SDS011;11108;49.988;8.182;2023-07-28T06:50:18;0.97;;;0.73;;
21886;SDS011;11108;49.988;8.182;2023-07-28T06:52:43;0.60;;;0.60;;
21886;SDS011;11108;49.988;8.182;2023-07-28T06:55:08;0.60;;;0.60;;
21886;SDS011;11108;49.988;8.182;2023-07-28T06:57:34;0.53;;;0.53;;
21886;SDS011;11108;49.988;8.182;2023-07-28T07:00:00;1.03;;;0.70;;
21886;SDS011;11108;49.988;8.182;2023-07-28T07:02:25;0.60;;;0.60;;
21886;SDS011;11108;49.988;8.182;2023-07-28T07:04:50;0.70;;;0.70;;
21886;SDS011;11108;49.988;8.182;2023-07-28T07:07:15;0.60;;;0.60;;
21886;SDS011;11108;49.988;8.182;2023-07-28T07:09:41;0.60;;;0.60;;
21886;SDS011;11108;49.988;8.182;2023-07-28T07:12:08;0.83;;;0.57;;
21886;SDS011;11108;49.988;8.182;2023-07-28T07:14:33;0.80;;;0.80;;
21886;SDS011;11108;49.988;8.182;2023-07-28T07:16:58;1.13;;;0.53;;
21886;SDS011;11108;49.988;8.182;2023-07-28T07:19:23;1.43;;;0.80;;
21886;SDS011;11108;49.988;8.182;2023-07-28T07:21:49;0.50;;;0.50;;
21886;SDS011;11108;49.988;8.182;2023-07-28T07:24:15;0.67;;;0.67;;
21886;SDS011;11108;49.988;8.182;2023-07-28T07:26:41;0.70;;;0.70;;
21886;SDS011;11108;49.988;8.182;2023-07-28T07:29:06;0.55;;;0.55;;
21886;SDS011;11108;49.988;8.182;2023-07-28T07:31:32;0.60;;;0.60;;
21886;SDS011;11108;49.988;8.182;2023-07-28T07:33:57;0.77;;;0.53;;
21886;SDS011;11108;49.988;8.182;2023-07-28T07:36:22;0.50;;;0.50;;
21886;SDS011;11108;49.988;8.182;2023-07-28T07:38:47;1.58;;;0.60;;
21886;SDS011;11108;49.988;8.182;2023-07-28T07:41:14;0.70;;;0.70;;
21886;SDS011;11108;49.988;8.182;2023-07-28T07:43:45;0.70;;;0.70;;
21886;SDS011;11108;49.988;8.182;2023-07-28T07:46:10;0.50;;;0.50;;
21886;SDS011;11108;49.988;8.182;2023-07-28T07:48:35;0.80;;;0.80;;
21886;SDS011;11108;49.988;8.182;2023-07-28T07:51:01;0.47;;;0.47;;
21886;SDS011;11108;49.988;8.182;2023-07-28T07:53:26;1.95;;;0.68;;
21886;SDS011;11108;49.988;8.182;2023-07-28T07:55:51;0.77;;;0.70;;
21886;SDS011;11108;49.988;8.182;2023-07-28T07:58:16;0.40;;;0.40;;
21886;SDS011;11108;49.988;8.182;2023-07-28T08:00:41;0.50;;;0.50;;
21886;SDS011;11108;49.988;8.182;2023-07-28T08:03:08;0.90;;;0.90;;
21886;SDS011;11108;49.988;8.182;2023-07-28T08:05:35;1.33;;;0.70;;
21886;SDS011;11108;49.988;8.182;2023-07-28T08:08:00;0.65;;;0.65;;
21886;SDS011;11108;49.988;8.182;2023-07-28T08:10:25;1.90;;;0.52;;
21886;SDS011;11108;49.988;8.182;2023-07-28T08:12:50;0.60;;;0.60;;
21886;SDS011;11108;49.988;8.182;2023-07-28T08:15:15;0.65;;;0.65;;
21886;SDS011;11108;49.988;8.182;2023-07-28T08:17:41;0.60;;;0.60;;
21886;SDS011;11108;49.988;8.182;2023-07-28T08:20:06;0.85;;;0.60;;
21886;SDS011;11108;49.988;8.182;2023-07-28T08:22:32;0.50;;;0.50;;
21886;SDS011;11108;49.988;8.182;2023-07-28T08:24:57;0.68;;;0.68;;
21886;SDS011;11108;49.988;8.182;2023-07-28T08:27:22;0.60;;;0.60;;
21886;SDS011;11108;49.988;8.182;2023-07-28T08:29:48;0.50;;;0.50;;
21886;SDS011;11108;49.988;8.182;2023-07-28T08:32:14;0.50;;;0.50;;
21886;SDS011;11108;49.988;8.182;2023-07-28T08:34:39;0.50;;;0.50;;
21886;SDS011;11108;49.988;8.182;2023-07-28T08:37:04;0.50;;;0.50;;
21886;SDS011;11108;49.988;8.182;2023-07-28T08:39:30;0.52;;;0.52;;
21886;SDS011;11108;49.988;8.182;2023-07-28T08:41:59;0.40;;;0.40;;
21886;SDS011;11108;49.988;8.182;2023-07-28T08:44:25;0.80;;;0.80;;
21886;SDS011;11108;49.988;8.182;2023-07-28T08:46:51;0.77;;;0.50;;
21886;SDS011;11108;49.988;8.182;2023-07-28T08:49:16;0.60;;;0.60;;
21886;SDS011;11108;49.988;8.182;2023-07-28T08:51:42;0.60;;;0.60;;
21886;SDS011;11108;49.988;8.182;2023-07-28T08:54:07;0.63;;;0.63;;
21886;SDS011;11108;49.988;8.182;2023-07-28T08:56:32;0.53;;;0.53;;
21886;SDS011;11108;49.988;8.182;2023-07-28T08:59:01;0.47;;;0.47;;
21886;SDS011;11108;49.988;8.182;2023-07-28T09:01:26;0.60;;;0.60;;
21886;SDS011;11108;49.988;8.182;2023-07-28T09:03:51;0.55;;;0.55;;
21886;SDS011;11108;49.988;8.182;2023-07-28T09:06:16;0.40;;;0.40;;
21886;SDS011;11108;49.988;8.182;2023-07-28T09:08:43;0.60;;;0.60;;
21886;SDS011;11108;49.988;8.182;2023-07-28T09:11:08;0.60;;;0.60;;
21886;SDS011;11108;49.988;8.182;2023-07-28T09:13:37;1.03;;;0.50;;
21886;SDS011;11108;49.988;8.182;2023-07-28T09:16:03;0.50;;;0.50;;
21886;SDS011;11108;49.988;8.182;2023-07-28T09:18:28;0.52;;;0.52;;
21886;SDS011;11108;49.988;8.182;2023-07-28T09:20:54;0.67;;;0.67;;
21886;SDS011;11108;49.988;8.182;2023-07-28T09:23:27;0.50;;;0.50;;
21886;SDS011;11108;49.988;8.182;2023-07-28T09:25:52;0.43;;;0.43;;
21886;SDS011;11108;49.988;8.182;2023-07-28T09:28:23;0.57;;;0.57;;
21886;SDS011;11108;49.988;8.182;2023-07-28T09:31:00;0.90;;;0.40;;
21886;SDS011;11108;49.988;8.182;2023-07-28T09:33:32;0.60;;;0.60;;
21886;SDS011;11108;49.988;8.182;2023-07-28T09:36:06;0.50;;;0.50;;
21886;SDS011;11108;49.988;8.182;2023-07-28T09:38:32;0.50;;;0.50;;
21886;SDS011;11108;49.988;8.182;2023-07-28T09:41:00;0.50;;;0.50;;
21886;SDS011;11108;49.988;8.182;2023-07-28T09:43:25;0.52;;;0.52;;
21886;SDS011;11108;49.988;8.182;2023-07-28T09:45:51;0.70;;;0.70;;
21886;SDS011;11108;49.988;8.182;2023-07-28T09:48:16;0.50;;;0.50;;
21886;SDS011;11108;49.988;8.182;2023-07-28T09:50:42;0.50;;;0.50;;
21886;SDS011;11108;49.988;8.182;2023-07-28T09:53:08;0.60;;;0.60;;
21886;SDS011;11108;49.988;8.182;2023-07-28T09:55:35;0.50;;;0.50;;
21886;SDS011;11108;49.988;8.182;2023-07-28T09:58:04;0.60;;;0.60;;
21886;SDS011;11108;49.988;8.182;2023-07-28T10:00:31;0.50;;;0.50;;
21886;SDS011;11108;49.988;8.182;2023-07-28T10:02:56;0.43;;;0.43;;
21886;SDS011;11108;49.988;8.182;2023-07-28T10:05:22;0.50;;;0.50;;
21886;SDS011;11108;49.988;8.182;2023-07-28T10:07:49;0.47;;;0.47;;
21886;SDS011;11108;49.988;8.182;2023-07-28T10:10:14;0.43;;;0.43;;
21886;SDS011;11108;49.988;8.182;2023-07-28T10:12:47;0.60;;;0.60;;
21886;SDS011;11108;49.988;8.182;2023-07-28T10:15:14;0.40;;;0.40;;
21886;SDS011;11108;49.988;8.182;2023-07-28T10:18:00;0.40;;;0.40;;
21886;SDS011;11108;49.988;8.182;2023-07-28T10:22:53;0.40;;;0.40;;
21886;SDS011;11108;49.988;8.182;2023-07-28T10:25:21;0.50;;;0.50;;
21886;SDS011;11108;49.988;8.182;2023-07-28T10:27:47;0.70;;;0.70;;
21886;SDS011;11108;49.988;8.182;2023-07-28T10:30:13;0.60;;;0.60;;
21886;SDS011;11108;49.988;8.182;2023-07-28T10:32:39;0.50;;;0.50;;
21886;SDS011;11108;49.988;8.182;2023-07-28T10:35:08;0.60;;;0.60;;
21886;SDS011;11108;49.988;8.182;2023-07-28T10:37:33;0.50;;;0.50;;
21886;SDS011;11108;49.988;8.182;2023-07-28T10:42:46;0.60;;;0.60;;
21886;SDS011;11108;49.988;8.182;2023-07-28T10:45:11;0.60;;;0.60;;
21886;SDS011;11108;49.988;8.182;2023-07-28T10:47:37;0.43;;;0.43;;
21886;SDS011;11108;49.988;8.182;2023-07-28T10:50:03;0.47;;;0.47;;
21886;SDS011;11108;49.988;8.182;2023-07-28T10:52:29;0.50;;;0.50;;
21886;SDS011;11108;49.988;8.182;2023-07-28T10:54:54;0.47;;;0.47;;
21886;SDS011;11108;49.988;8.182;2023-07-28T10:57:19;0.55;;;0.50;;
21886;SDS011;11108;49.988;8.182;2023-07-28T10:59:44;0.50;;;0.50;;
21886;SDS011;11108;49.988;8.182;2023-07-28T11:02:14;0.70;;;0.70;;
21886;SDS011;11108;49.988;8.182;2023-07-28T11:04:39;0.50;;;0.50;;
21886;SDS011;11108;49.988;8.182;2023-07-28T11:07:10;0.60;;;0.60;;
21886;SDS011;11108;49.988;8.182;2023-07-28T11:09:35;0.73;;;0.73;;
21886;SDS011;11108;49.988;8.182;2023-07-28T11:12:01;0.67;;;0.67;;
21886;SDS011;11108;49.988;8.182;2023-07-28T11:14:26;0.60;;;0.60;;
21886;SDS011;11108;49.988;8.182;2023-07-28T11:16:51;0.60;;;0.60;;
21886;SDS011;11108;49.988;8.182;2023-07-28T11:19:17;0.60;;;0.60;;
21886;SDS011;11108;49.988;8.182;2023-07-28T11:21:49;0.57;;;0.57;;
21886;SDS011;11108;49.988;8.182;2023-07-28T11:24:17;0.63;;;0.63;;
21886;SDS011;11108;49.988;8.182;2023-07-28T11:26:43;0.53;;;0.53;;
21886;SDS011;11108;49.988;8.182;2023-07-28T11:29:11;0.80;;;0.80;;
21886;SDS011;11108;49.988;8.182;2023-07-28T11:31:36;0.60;;;0.60;;
21886;SDS011;11108;49.988;8.182;2023-07-28T11:34:01;0.57;;;0.57;;
21886;SDS011;11108;49.988;8.182;2023-07-28T11:36:27;0.63;;;0.63;;
21886;SDS011;11108;49.988;8.182;2023-07-28T11:38:54;0.70;;;0.70;;
21886;SDS011;11108;49.988;8.182;2023-07-28T11:41:20;0.70;;;0.70;;
21886;SDS011;11108;49.988;8.182;2023-07-28T11:43:46;0.60;;;0.60;;
21886;SDS011;11108;49.988;8.182;2023-07-28T11:51:53;0.90;;;0.90;;
21886;SDS011;11108;49.988;8.182;2023-07-28T11:54:19;0.60;;;0.60;;
21886;SDS011;11108;49.988;8.182;2023-07-28T11:56:47;0.80;;;0.80;;
21886;SDS011;11108;49.988;8.182;2023-07-28T11:59:14;0.70;;;0.70;;
21886;SDS011;11108;49.988;8.182;2023-07-28T12:01:53;1.47;;;0.63;;
21886;SDS011;11108;49.988;8.182;2023-07-28T12:04:20;0.80;;;0.80;;
21886;SDS011;11108;49.988;8.182;2023-07-28T12:09:26;0.90;;;0.90;;
21886;SDS011;11108;49.988;8.182;2023-07-28T12:11:51;0.83;;;0.83;;
21886;SDS011;11108;49.988;8.182;2023-07-28T12:14:29;0.80;;;0.80;;
21886;SDS011;11108;49.988;8.182;2023-07-28T12:16:54;0.90;;;0.90;;
21886;SDS011;11108;49.988;8.182;2023-07-28T12:19:20;1.20;;;0.93;;
21886;SDS011;11108;49.988;8.182;2023-07-28T12:21:45;0.87;;;0.87;;
21886;SDS011;11108;49.988;8.182;2023-07-28T12:24:10;0.80;;;0.80;;
21886;SDS011;11108;49.988;8.182;2023-07-28T12:26:35;0.93;;;0.93;;
21886;SDS011;11108;49.988;8.182;2023-07-28T12:29:01;1.20;;;1.20;;
21886;SDS011;11108;49.988;8.182;2023-07-28T12:31:26;1.10;;;1.10;;
21886;SDS011;11108;49.988;8.182;2023-07-28T12:33:51;1.50;;;1.40;;
21886;SDS011;11108;49.988;8.182;2023-07-28T12:36:16;1.10;;;1.10;;
21886;SDS011;11108;49.988;8.182;2023-07-28T12:38:42;1.10;;;1.10;;
21886;SDS011;11108;49.988;8.182;2023-07-28T12:41:08;1.10;;;1.10;;
21886;SDS011;11108;49.988;8.182;2023-07-28T12:43:35;1.00;;;0.90;;
21886;SDS011;11108;49.988;8.182;2023-07-28T12:46:00;1.13;;;1.13;;
21886;SDS011;11108;49.988;8.182;2023-07-28T12:48:25;0.90;;;0.90;;
21886;SDS011;11108;49.988;8.182;2023-07-28T12:50:50;1.30;;;1.30;;
21886;SDS011;11108;49.988;8.182;2023-07-28T12:53:16;1.63;;;1.30;;
21886;SDS011;11108;49.988;8.182;2023-07-28T12:55:41;1.27;;;1.27;;
21886;SDS011;11108;49.988;8.182;2023-07-28T12:58:06;1.20;;;1.20;;
21886;SDS011;11108;49.988;8.182;2023-07-28T13:00:31;1.47;;;1.47;;
21886;SDS011;11108;49.988;8.182;2023-07-28T13:02:57;1.43;;;1.30;;
21886;SDS011;11108;49.988;8.182;2023-07-28T13:05:22;1.30;;;1.20;;
21886;SDS011;11108;49.988;8.182;2023-07-28T13:07:47;1.20;;;1.20;;
21886;SDS011;11108;49.988;8.182;2023-07-28T13:10:13;1.33;;;1.30;;
21886;SDS011;11108;49.988;8.182;2023-07-28T13:12:38;0.93;;;0.93;;
21886;SDS011;11108;49.988;8.182;2023-07-28T13:15:04;1.23;;;1.23;;
21886;SDS011;11108;49.988;8.182;2023-07-28T13:17:30;1.10;;;1.10;;
21886;SDS011;11108;49.988;8.182;2023-07-28T13:19:55;0.97;;;0.97;;
21886;SDS011;11108;49.988;8.182;2023-07-28T13:22:24;1.20;;;1.20;;
21886;SDS011;11108;49.988;8.182;2023-07-28T13:24:51;1.50;;;1.20;;
21886;SDS011;11108;49.988;8.182;2023-07-28T13:27:16;1.37;;;1.27;;
21886;SDS011;11108;49.988;8.182;2023-07-28T13:29:41;1.17;;;1.17;;
21886;SDS011;11108;49.988;8.182;2023-07-28T13:32:17;1.30;;;1.30;;
21886;SDS011;11108;49.988;8.182;2023-07-28T13:34:42;1.40;;;1.40;;
21886;SDS011;11108;49.988;8.182;2023-07-28T13:37:07;1.23;;;1.23;;
21886;SDS011;11108;49.988;8.182;2023-07-28T13:39:32;1.50;;;1.50;;
21886;SDS011;11108;49.988;8.182;2023-07-28T13:41:58;1.17;;;1.17;;
21886;SDS011;11108;49.988;8.182;2023-07-28T13:44:23;1.30;;;1.30;;
21886;SDS011;11108;49.988;8.182;2023-07-28T13:46:48;1.70;;;1.20;;
21886;SDS011;11108;49.988;8.182;2023-07-28T13:49:13;1.23;;;1.23;;
21886;SDS011;11108;49.988;8.182;2023-07-28T13:51:38;1.40;;;1.40;;
21886;SDS011;11108;49.988;8.182;2023-07-28T13:54:04;1.07;;;1.07;;
21886;SDS011;11108;49.988;8.182;2023-07-28T13:56:29;1.10;;;1.10;;
21886;SDS011;11108;49.988;8.182;2023-07-28T13:58:54;1.33;;;1.33;;
21886;SDS011;11108;49.988;8.182;2023-07-28T14:01:19;1.50;;;1.50;;
21886;SDS011;11108;49.988;8.182;2023-07-28T14:03:44;1.50;;;1.50;;
21886;SDS011;11108;49.988;8.182;2023-07-28T14:06:10;1.40;;;1.40;;
21886;SDS011;11108;49.988;8.182;2023-07-28T14:08:36;1.27;;;1.23;;
21886;SDS011;11108;49.988;8.182;2023-07-28T14:11:01;1.10;;;1.10;;
21886;SDS011;11108;49.988;8.182;2023-07-28T14:13:26;1.30;;;1.20;;
21886;SDS011;11108;49.988;8.182;2023-07-28T14:15:52;1.30;;;1.30;;
21886;SDS011;11108;49.988;8.182;2023-07-28T14:18:17;1.40;;;1.40;;
21886;SDS011;11108;49.988;8.182;2023-07-28T14:20:42;1.43;;;1.43;;
21886;SDS011;11108;49.988;8.182;2023-07-28T14:23:19;1.30;;;1.30;;
21886;SDS011;11108;49.988;8.182;2023-07-28T14:25:45;1.20;;;1.20;;
21886;SDS011;11108;49.988;8.182;2023-07-28T14:28:10;1.17;;;1.17;;
21886;SDS011;11108;49.988;8.182;2023-07-28T14:30:36;1.33;;;1.23;;
21886;SDS011;11108;49.988;8.182;2023-07-28T14:33:01;1.63;;;1.30;;
21886;SDS011;11108;49.988;8.182;2023-07-28T14:35:26;1.20;;;1.20;;
21886;SDS011;11108;49.988;8.182;2023-07-28T14:37:51;1.53;;;1.30;;
21886;SDS011;11108;49.988;8.182;2023-07-28T14:40:16;1.10;;;1.10;;
21886;SDS011;11108;49.988;8.182;2023-07-28T14:42:41;1.13;;;1.13;;
21886;SDS011;11108;49.988;8.182;2023-07-28T14:45:07;1.13;;;1.13;;
21886;SDS011;11108;49.988;8.182;2023-07-28T14:47:32;1.37;;;1.37;;
21886;SDS011;11108;49.988;8.182;2023-07-28T14:49:57;1.20;;;1.20;;
21886;SDS011;11108;49.988;8.182;2023-07-28T14:52:22;1.20;;;1.20;;
21886;SDS011;11108;49.988;8.182;2023-07-28T14:54:47;1.20;;;1.20;;